Torrington, WY (82240)

4:09 AM MDT on October 23, 2014 (GMT -0600)
Torrington Municipal | Change Station
CLOSE
Current Station
Airport
Location: Torrington,
Elevation: 4206 ft
Nearby Weather Stations

Elev 4206 ft 42.06 °N, 104.15 °W | Updated 16 minutes ago

Clear
Clear
30 °F
Feels Like 24 °F
N
6
Wind Variable Wind from ESE

Today
High -- | Low -- °F
--% Chance of Precip.
Yesterday
High -- | Low -- °F
Precip. -- in
7:18 AM 6:02 PM
Waning Crescent, 0% visible
Pressure 30.06 in
Visibility 10.0 miles
Clouds Clear
Windchill 24 °F
Dew Point 22 °F
Humidity 72%
Rainfall 0.00 in
Snow Depth Not available.
UV 0 out of 12
Pollen 2.30 out of 12
Air Quality Not available.
Flu Activity Sporadic
METAR KTOR 230953Z AUTO 12005KT 10SM CLR M01/M06 A3009 RMK AO2 SLP179 T10111056

More Conditions Fewer Conditions

Pressure 30.06 in
Visibility 10.0 miles
Clouds Clear
Windchill 24 °F
Dew Point 22 °F
Humidity 72%
Rainfall 0.00 in
Snow Depth Not available.
UV 0 out of 12
Pollen 2.30 out of 12
Air Quality Not available.
Flu Activity Sporadic
METAR KTOR 230953Z AUTO 12005KT 10SM CLR M01/M06 A3009 RMK AO2 SLP179 T10111056

More Conditions Fewer Conditions

10-Day Weather Forecast

Almanac

Astronomy

Oct. 23, 2014 Rise Set
Actual Time 7:18 AM MDT 6:02 PM MDT
Civil Twilight 6:50 AM MDT 6:31 PM MDT
Nautical Twilight 6:17 AM MDT 7:03 PM MDT
Astronomical Twilight 5:45 AM MDT 7:36 PM MDT
Moon 7:00 AM MDT 6:05 PM MDT
Length of Visible Light 11h 41m
Length of Day
10h 44m
Tomorrow will be 2m 39s shorter.
Waning Crescent, 0% of the Moon is Illuminated
Today
Waning Crescent
Oct 23
New
Oct 30
First Quarter
Nov 6
Full
Nov 14
Last Quarter

Today's Extremes

State Highs State Lows

Community

WunderPhotos

Upload Photos

1,764,201 photos uploaded!

Nearby

Snow Depth

Station Depth Elevation
Windy Peak 1 in 7900 ft
Crow Creek 1 in 8330 ft
Laprele Creek 1 in 8375 ft
Reno Hill 1 in 8500 ft
Sand Lake 5 in 10050 ft

Earthquake Activity

City Distance Mag. Time & Date
No recent earthquake activity has been reported nearby.
Minimum magnitude displayed is 2.5.

Coastal Water Temperatures

Place Temperature
No Stations Reporting

Nearby Weather Stations